createdAt,value
2019-04-01T00:02:04.172Z,2.27
2019-04-01T00:04:33.011Z,2.27
2019-04-01T00:07:01.551Z,2.62
2019-04-01T00:09:30.017Z,2.37
2019-04-01T00:11:58.945Z,2.30
2019-04-01T00:14:27.414Z,2.17
2019-04-01T00:16:55.879Z,2.42
2019-04-01T00:19:24.602Z,2.15
2019-04-01T00:21:53.071Z,2.30
2019-04-01T00:24:21.950Z,2.02
2019-04-01T00:26:50.670Z,2.25
2019-04-01T00:29:19.153Z,2.35
2019-04-01T00:31:47.607Z,2.10
2019-04-01T00:34:16.298Z,2.00
2019-04-01T00:36:44.769Z,2.10
2019-04-01T00:39:13.228Z,2.05
2019-04-01T00:41:46.318Z,2.33
2019-04-01T00:44:14.783Z,2.10
2019-04-01T00:46:43.256Z,1.90
2019-04-01T00:49:12.017Z,2.20
2019-04-01T00:51:40.510Z,2.30
2019-04-01T00:54:09.000Z,2.25
2019-04-01T00:56:37.516Z,1.98
2019-04-01T00:59:05.990Z,2.35
2019-04-01T01:01:34.475Z,2.25
2019-04-01T01:04:02.963Z,2.85
2019-04-01T01:06:31.450Z,2.00
2019-04-01T01:08:59.883Z,2.17
2019-04-01T01:11:29.664Z,1.98
2019-04-01T01:13:58.163Z,2.92
2019-04-01T01:16:26.654Z,2.25
2019-04-01T01:18:55.157Z,2.60
2019-04-01T01:21:23.641Z,2.00
2019-04-01T01:23:52.175Z,2.20
2019-04-01T01:26:20.775Z,1.98
2019-04-01T01:28:49.306Z,3.05
2019-04-01T01:31:17.772Z,2.40
2019-04-01T01:33:47.017Z,2.15
2019-04-01T01:36:15.493Z,2.05
2019-04-01T01:38:43.992Z,2.30
2019-04-01T01:41:12.508Z,2.35
2019-04-01T01:43:40.975Z,2.20
2019-04-01T01:46:09.782Z,2.35
2019-04-01T01:48:38.285Z,1.82
2019-04-01T01:51:06.776Z,2.05
2019-04-01T01:53:35.363Z,2.10
2019-04-01T01:56:04.578Z,2.22
2019-04-01T01:58:33.238Z,2.47
2019-04-01T02:01:01.720Z,2.33
2019-04-01T02:03:30.259Z,2.65
2019-04-01T02:05:58.730Z,2.40
2019-04-01T02:08:27.230Z,2.30
2019-04-01T02:10:55.713Z,2.33
2019-04-01T02:13:24.177Z,2.45
2019-04-01T02:15:54.039Z,2.52
2019-04-01T02:18:23.168Z,2.25
2019-04-01T02:20:51.648Z,2.52
2019-04-01T02:23:20.131Z,1.80
2019-04-01T02:25:48.853Z,2.70
2019-04-01T02:28:17.313Z,2.30
2019-04-01T02:30:45.776Z,2.75
2019-04-01T02:33:14.873Z,2.10
2019-04-01T02:35:43.347Z,2.60
2019-04-01T02:38:11.803Z,2.30
2019-04-01T02:40:40.347Z,2.80
2019-04-01T02:43:08.971Z,2.80
2019-04-01T02:45:37.440Z,2.40
2019-04-01T02:48:06.007Z,2.05
2019-04-01T02:50:34.851Z,2.02
2019-04-01T02:53:03.319Z,2.80
2019-04-01T02:55:32.095Z,2.45
2019-04-01T02:58:00.592Z,2.83
2019-04-01T03:00:29.379Z,2.47
2019-04-01T03:02:57.873Z,2.60
2019-04-01T03:05:26.340Z,2.72
2019-04-01T03:07:54.789Z,2.42
2019-04-01T03:10:23.539Z,2.62
2019-04-01T03:12:52.013Z,2.52
2019-04-01T03:15:20.482Z,2.25
2019-04-01T03:17:49.237Z,2.22
2019-04-01T03:20:17.750Z,2.50
2019-04-01T03:22:46.216Z,2.55
2019-04-01T03:25:14.729Z,2.65
2019-04-01T03:27:43.223Z,2.50
2019-04-01T03:30:12.215Z,2.30
2019-04-01T03:32:45.178Z,2.80
2019-04-01T03:35:11.290Z,2.70
2019-04-01T03:37:39.875Z,2.62
2019-04-01T03:40:08.792Z,2.42
2019-04-01T03:42:37.643Z,3.05
2019-04-01T03:45:07.063Z,2.92
2019-04-01T03:47:35.873Z,2.50
2019-04-01T03:50:05.153Z,2.60
2019-04-01T03:52:33.618Z,2.72
2019-04-01T03:55:02.297Z,3.10
2019-04-01T03:57:30.749Z,2.55
2019-04-01T04:00:01.573Z,3.10
2019-04-01T04:02:30.115Z,3.00
2019-04-01T04:04:58.575Z,2.62
2019-04-01T04:07:27.042Z,2.83
2019-04-01T04:09:55.549Z,2.95
2019-04-01T04:12:24.135Z,3.67
2019-04-01T04:14:52.635Z,4.17
2019-04-01T04:17:21.363Z,3.12
2019-04-01T04:19:50.008Z,2.85
2019-04-01T04:22:18.643Z,3.12
2019-04-01T04:24:47.189Z,3.22
2019-04-01T04:27:15.778Z,2.87
2019-04-01T04:29:44.295Z,2.80
2019-04-01T04:32:13.110Z,3.10
2019-04-01T04:34:41.577Z,2.75
2019-04-01T04:37:10.049Z,3.12
2019-04-01T04:39:38.671Z,2.90
2019-04-01T04:42:07.126Z,3.77
2019-04-01T04:44:35.765Z,3.10
2019-04-01T04:47:04.286Z,3.05
2019-04-01T04:49:32.754Z,2.90
2019-04-01T04:52:04.465Z,3.47
2019-04-01T04:54:31.442Z,3.40
2019-04-01T04:57:00.030Z,3.37
2019-04-01T04:59:28.576Z,2.87
2019-04-01T05:01:57.090Z,3.27
2019-04-01T05:04:25.558Z,3.52
2019-04-01T05:06:54.060Z,2.95
2019-04-01T05:09:23.950Z,2.77
2019-04-01T05:11:52.523Z,3.15
2019-04-01T05:14:21.008Z,2.90
2019-04-01T05:16:49.513Z,3.62
2019-04-01T05:19:17.990Z,3.65
2019-04-01T05:21:47.405Z,4.03
2019-04-01T05:24:16.922Z,3.92
2019-04-01T05:26:45.493Z,4.03
2019-04-01T05:29:15.785Z,4.37
2019-04-01T05:31:46.850Z,3.95
2019-04-01T05:34:17.642Z,3.90
2019-04-01T05:36:47.140Z,4.40
2019-04-01T05:39:16.205Z,4.03
2019-04-01T05:41:45.135Z,4.08
2019-04-01T05:44:14.190Z,3.58
2019-04-01T05:46:42.815Z,4.28
2019-04-01T05:49:11.290Z,4.05
2019-04-01T05:51:39.831Z,3.65
2019-04-01T05:54:11.078Z,4.05
2019-04-01T05:56:39.581Z,2.55
2019-04-01T05:59:08.059Z,4.72
2019-04-01T06:01:42.201Z,4.17
2019-04-01T06:04:10.677Z,4.92
2019-04-01T06:06:39.138Z,5.03
2019-04-01T06:09:09.080Z,3.70
2019-04-01T06:11:37.792Z,4.03
2019-04-01T06:14:06.525Z,4.30
2019-04-01T06:16:35.140Z,4.20
2019-04-01T06:19:05.961Z,4.08
2019-04-01T06:21:35.468Z,4.33
2019-04-01T06:24:04.676Z,3.87
2019-04-01T06:26:33.245Z,3.87
2019-04-01T06:29:01.716Z,3.65
2019-04-01T06:31:30.222Z,3.50
2019-04-01T06:33:58.757Z,4.00
2019-04-01T06:36:27.396Z,3.95
2019-04-01T06:38:55.906Z,3.37
2019-04-01T06:41:24.588Z,3.35
2019-04-01T06:43:53.072Z,3.70
2019-04-01T06:46:21.591Z,4.10
2019-04-01T06:48:50.071Z,3.70
2019-04-01T06:51:18.555Z,3.55
2019-04-01T06:53:47.339Z,3.35
2019-04-01T06:56:15.890Z,4.55
2019-04-01T06:58:44.347Z,4.10
2019-04-01T07:01:12.950Z,3.83
2019-04-01T07:03:41.408Z,3.37
2019-04-01T07:06:09.966Z,3.50
2019-04-01T07:08:38.792Z,3.10
2019-04-01T07:11:07.297Z,3.33
2019-04-01T07:13:39.707Z,3.30
2019-04-01T07:16:15.304Z,3.17
2019-04-01T07:18:36.795Z,3.00
2019-04-01T07:21:05.622Z,2.92
2019-04-01T07:23:34.694Z,3.02
2019-04-01T07:26:03.958Z,2.00
2019-04-01T07:28:32.606Z,2.50
2019-04-01T07:31:01.632Z,2.42
2019-04-01T07:33:30.165Z,2.45
2019-04-01T07:35:58.653Z,2.47
2019-04-01T07:38:27.613Z,2.47
2019-04-01T07:40:59.107Z,2.35
2019-04-01T07:43:26.770Z,2.50
2019-04-01T07:45:55.370Z,2.02
2019-04-01T07:48:23.888Z,2.20
2019-04-01T07:50:52.456Z,2.00
2019-04-01T07:53:21.201Z,1.72
2019-04-01T07:55:49.752Z,2.30
2019-04-01T07:58:18.230Z,1.75
2019-04-01T08:00:46.836Z,1.90
2019-04-01T08:03:15.740Z,1.92
2019-04-01T08:05:44.207Z,1.22
2019-04-01T08:08:12.823Z,2.20
2019-04-01T08:10:41.311Z,1.67
2019-04-01T08:13:10.183Z,2.05
2019-04-01T08:15:38.863Z,1.60
2019-04-01T08:18:07.337Z,1.70
2019-04-01T08:20:35.871Z,1.80
2019-04-01T08:23:04.559Z,1.75
2019-04-01T08:25:39.155Z,2.00
2019-04-01T08:28:07.761Z,1.75
2019-04-01T08:30:36.248Z,2.20
2019-04-01T08:33:05.117Z,2.10
2019-04-01T08:35:34.083Z,1.67
2019-04-01T08:38:03.023Z,1.75
2019-04-01T08:40:31.767Z,1.75
2019-04-01T08:43:00.556Z,1.40
2019-04-01T08:45:29.220Z,1.77
2019-04-01T08:47:57.772Z,1.92
2019-04-01T08:50:26.499Z,1.60
2019-04-01T08:52:55.169Z,1.70
2019-04-01T08:55:23.631Z,2.10
2019-04-01T08:57:52.181Z,1.77
2019-04-01T09:00:21.352Z,2.05
2019-04-01T09:02:49.891Z,1.47
2019-04-01T09:05:18.391Z,2.10
2019-04-01T09:07:47.241Z,1.77
2019-04-01T09:10:16.498Z,2.05
2019-04-01T09:12:45.291Z,1.90
2019-04-01T09:15:14.328Z,2.00
2019-04-01T09:17:42.872Z,1.75
2019-04-01T09:20:11.998Z,1.80
2019-04-01T09:22:40.791Z,1.95
2019-04-01T09:25:09.740Z,1.85
2019-04-01T09:27:38.190Z,2.50
2019-04-01T09:30:08.253Z,1.87
2019-04-01T09:32:36.728Z,1.65
2019-04-01T09:35:08.672Z,2.25
2019-04-01T09:37:37.318Z,1.95
2019-04-01T09:40:07.500Z,2.05
2019-04-01T09:42:35.994Z,1.90
2019-04-01T09:45:09.661Z,1.72
2019-04-01T09:47:38.208Z,1.92
2019-04-01T09:50:07.872Z,1.98
2019-04-01T09:52:36.482Z,1.90
2019-04-01T09:55:06.609Z,1.90
2019-04-01T09:57:35.440Z,2.17
2019-04-01T10:00:06.730Z,1.67
2019-04-01T10:02:35.351Z,1.60
2019-04-01T10:05:06.063Z,1.50
2019-04-01T10:07:34.847Z,1.82
2019-04-01T10:10:04.802Z,1.80
2019-04-01T10:12:33.296Z,1.85
2019-04-01T10:15:01.877Z,1.77
2019-04-01T10:17:30.334Z,1.77
2019-04-01T10:20:00.870Z,1.72
2019-04-01T10:22:29.061Z,1.90
2019-04-01T10:24:57.820Z,1.92
2019-04-01T10:27:26.487Z,1.70
2019-04-01T10:29:55.095Z,1.47
2019-04-01T10:32:23.607Z,1.60
2019-04-01T10:34:52.089Z,2.17
2019-04-01T10:37:20.609Z,1.87
2019-04-01T10:39:49.074Z,1.57
2019-04-01T10:42:17.587Z,2.08
2019-04-01T10:44:47.313Z,1.77
2019-04-01T10:47:15.903Z,1.60
2019-04-01T10:49:44.467Z,1.40
2019-04-01T10:52:13.285Z,1.60
2019-04-01T10:54:41.793Z,1.82
2019-04-01T10:57:10.426Z,1.80
2019-04-01T10:59:39.126Z,1.50
2019-04-01T11:02:08.093Z,2.12
2019-04-01T11:04:36.623Z,1.40
2019-04-01T11:07:06.324Z,1.52
2019-04-01T11:09:38.431Z,2.25
2019-04-01T11:12:05.123Z,1.80
2019-04-01T11:14:34.155Z,1.80
2019-04-01T11:17:08.592Z,1.57
2019-04-01T11:19:37.143Z,1.57
2019-04-01T11:22:06.243Z,1.70
2019-04-01T11:24:34.722Z,1.80
2019-04-01T11:27:03.300Z,2.00
2019-04-01T11:29:31.882Z,1.82
2019-04-01T11:32:00.348Z,1.70
2019-04-01T11:34:28.884Z,1.57
2019-04-01T11:36:58.803Z,2.12
2019-04-01T11:39:27.325Z,1.72
2019-04-01T11:41:55.994Z,1.90
2019-04-01T11:44:24.728Z,1.98
2019-04-01T11:46:53.524Z,1.98
2019-04-01T11:49:22.466Z,1.60
2019-04-01T11:51:51.957Z,1.57
2019-04-01T11:54:20.446Z,1.67
2019-04-01T11:56:48.996Z,1.62
2019-04-01T11:59:17.542Z,1.80
2019-04-01T12:01:47.331Z,1.50
2019-04-01T12:04:16.140Z,1.40
2019-04-01T12:06:44.819Z,1.90
2019-04-01T12:09:13.334Z,2.17
2019-04-01T12:11:42.118Z,1.70
2019-04-01T12:14:10.679Z,1.52
2019-04-01T12:16:39.506Z,1.80
2019-04-01T12:19:07.983Z,1.75
2019-04-01T12:21:37.099Z,1.90
2019-04-01T12:24:06.841Z,1.75
2019-04-01T12:26:35.333Z,2.05
2019-04-01T12:29:04.231Z,1.40
2019-04-01T12:31:32.689Z,1.62
2019-04-01T12:34:01.225Z,1.57
2019-04-01T12:36:30.081Z,1.62
2019-04-01T12:38:58.951Z,1.75
2019-04-01T12:41:27.405Z,1.80
2019-04-01T12:43:55.935Z,1.87
2019-04-01T12:46:24.385Z,1.92
2019-04-01T12:48:53.071Z,1.77
2019-04-01T12:51:21.873Z,1.70
2019-04-01T12:53:50.511Z,1.55
2019-04-01T12:56:19.112Z,1.57
2019-04-01T12:58:48.071Z,1.55
2019-04-01T13:01:16.908Z,1.72
2019-04-01T13:03:45.390Z,1.87
2019-04-01T13:06:14.107Z,1.95
2019-04-01T13:08:42.610Z,1.77
2019-04-01T13:11:11.182Z,1.62
2019-04-01T13:13:39.681Z,1.57
2019-04-01T13:16:09.122Z,1.82
2019-04-01T13:18:38.271Z,2.00
2019-04-01T13:21:07.116Z,1.62
2019-04-01T13:23:36.076Z,1.70
2019-04-01T13:26:05.663Z,1.50
2019-04-01T13:28:34.526Z,1.70
2019-04-01T13:31:02.993Z,1.90
2019-04-01T13:33:31.483Z,1.80
2019-04-01T13:35:59.983Z,1.67
2019-04-01T13:38:28.507Z,2.00
2019-04-01T13:40:57.005Z,2.30
2019-04-01T13:43:28.043Z,1.60
2019-04-01T13:45:56.534Z,1.80
2019-04-01T13:48:24.997Z,1.60
2019-04-01T13:50:53.935Z,1.50
2019-04-01T13:53:22.413Z,1.57
2019-04-01T13:55:51.379Z,1.67
2019-04-01T13:58:19.990Z,1.67
2019-04-01T14:00:49.656Z,1.37
2019-04-01T14:03:18.230Z,1.40
2019-04-01T14:05:47.810Z,1.82
2019-04-01T14:08:25.658Z,1.80
2019-04-01T14:11:01.218Z,1.60
2019-04-01T14:13:29.901Z,1.70
2019-04-01T14:15:58.346Z,1.62
2019-04-01T14:18:27.162Z,1.70
2019-04-01T14:20:55.640Z,1.45
2019-04-01T14:23:24.143Z,1.80
2019-04-01T14:25:52.651Z,1.32
2019-04-01T14:28:21.336Z,1.52
2019-04-01T14:30:49.917Z,1.50
2019-04-01T14:33:18.505Z,1.90
2019-04-01T14:35:46.974Z,1.70
2019-04-01T14:38:15.488Z,1.60
2019-04-01T14:40:44.072Z,1.60
2019-04-01T14:43:12.582Z,1.52
2019-04-01T14:45:41.056Z,1.62
2019-04-01T14:48:11.756Z,1.92
2019-04-01T14:50:40.253Z,1.55
2019-04-01T14:53:09.977Z,1.50
2019-04-01T14:55:39.362Z,1.70
2019-04-01T14:58:07.851Z,1.57
2019-04-01T15:00:36.300Z,1.65
2019-04-01T15:03:05.059Z,1.67
2019-04-01T15:05:33.772Z,1.50
2019-04-01T15:08:02.329Z,1.72
2019-04-01T15:10:30.849Z,1.50
2019-04-01T15:13:05.599Z,1.47
2019-04-01T15:15:29.702Z,1.70
2019-04-01T15:17:58.389Z,1.45
2019-04-01T15:20:26.892Z,1.60
2019-04-01T15:22:55.800Z,1.27
2019-04-01T15:25:24.480Z,1.37
2019-04-01T15:27:53.282Z,1.40
2019-04-01T15:30:21.771Z,1.62
2019-04-01T15:32:50.348Z,1.20
2019-04-01T15:35:20.044Z,1.90
2019-04-01T15:37:48.499Z,1.80
2019-04-01T15:40:18.261Z,1.57
2019-04-01T15:42:47.024Z,1.35
2019-04-01T15:45:15.562Z,1.77
2019-04-01T15:47:44.142Z,1.50
2019-04-01T15:50:27.258Z,1.30
2019-04-01T15:52:43.795Z,1.17
2019-04-01T15:55:12.469Z,1.50
2019-04-01T15:57:40.964Z,1.40
2019-04-01T16:00:10.105Z,1.60
2019-04-01T16:02:39.160Z,1.30
2019-04-01T16:05:08.374Z,1.50
2019-04-01T16:07:36.842Z,1.70
2019-04-01T16:10:06.672Z,1.20
2019-04-01T16:12:35.136Z,1.22
2019-04-01T16:15:04.791Z,1.50
2019-04-01T16:17:33.958Z,2.05
2019-04-01T16:20:02.693Z,1.40
2019-04-01T16:22:31.153Z,1.40
2019-04-01T16:24:59.973Z,1.50
2019-04-01T16:27:28.611Z,1.50
2019-04-01T16:29:57.082Z,1.50
2019-04-01T16:32:25.594Z,1.87
2019-04-01T16:34:54.073Z,1.80
2019-04-01T16:37:22.822Z,2.10
2019-04-01T16:39:54.353Z,2.77
2019-04-01T16:42:21.618Z,1.90
2019-04-01T16:44:50.043Z,1.65
2019-04-01T16:47:18.698Z,1.70
2019-04-01T16:49:47.176Z,1.50
2019-04-01T16:52:16.046Z,1.40
2019-04-01T16:54:47.805Z,1.77
2019-04-01T16:57:16.292Z,1.90
2019-04-01T16:59:44.893Z,1.62
2019-04-01T17:02:18.116Z,1.95
2019-04-01T17:04:46.139Z,1.75
2019-04-01T17:07:14.373Z,1.92
2019-04-01T17:09:42.989Z,1.87
2019-04-01T17:12:11.465Z,1.77
2019-04-01T17:14:39.991Z,1.60
2019-04-01T17:17:08.830Z,1.60
2019-04-01T17:19:37.313Z,1.30
2019-04-01T17:22:07.395Z,1.90
2019-04-01T17:24:35.956Z,1.72
2019-04-01T17:27:09.930Z,1.80
2019-04-01T17:29:38.669Z,1.40
2019-04-01T17:32:07.491Z,1.60
2019-04-01T17:34:36.022Z,1.40
2019-04-01T17:37:04.504Z,1.60
2019-04-01T17:39:34.622Z,1.70
2019-04-01T17:42:03.414Z,1.37
2019-04-01T17:44:32.122Z,1.62
2019-04-01T17:47:01.172Z,1.40
2019-04-01T17:49:30.252Z,1.60
2019-04-01T17:51:59.630Z,1.70
2019-04-01T17:54:28.324Z,2.12
2019-04-01T17:56:56.864Z,2.00
2019-04-01T17:59:25.425Z,1.85
2019-04-01T18:01:56.899Z,1.98
2019-04-01T18:04:24.293Z,1.90
2019-04-01T18:06:52.785Z,1.92
2019-04-01T18:09:22.228Z,1.75
2019-04-01T18:11:50.725Z,1.98
2019-04-01T18:14:19.563Z,2.02
2019-04-01T18:16:48.148Z,2.00
2019-04-01T18:19:16.626Z,2.00
2019-04-01T18:21:45.291Z,1.92
2019-04-01T18:24:13.787Z,1.77
2019-04-01T18:26:42.259Z,1.80
2019-04-01T18:29:10.718Z,1.92
2019-04-01T18:31:39.287Z,1.70
2019-04-01T18:34:08.080Z,1.62
2019-04-01T18:36:36.546Z,1.62
2019-04-01T18:39:07.912Z,1.80
2019-04-01T18:41:36.344Z,1.87
2019-04-01T18:44:05.528Z,1.82
2019-04-01T18:46:34.150Z,2.10
2019-04-01T18:49:02.614Z,1.87
2019-04-01T18:51:31.149Z,1.80
2019-04-01T18:53:59.757Z,1.80
2019-04-01T18:56:29.193Z,2.05
2019-04-01T18:58:58.082Z,2.05
2019-04-01T19:01:26.589Z,2.20
2019-04-01T19:03:55.077Z,2.58
2019-04-01T19:06:23.530Z,1.95
2019-04-01T19:08:52.255Z,2.58
2019-04-01T19:11:22.140Z,2.22
2019-04-01T19:13:50.585Z,2.15
2019-04-01T19:16:22.847Z,2.50
2019-04-01T19:18:49.342Z,2.08
2019-04-01T19:21:17.909Z,2.10
2019-04-01T19:23:46.814Z,2.37
2019-04-01T19:26:15.461Z,2.00
2019-04-01T19:28:43.980Z,2.40
2019-04-01T19:31:12.507Z,2.02
2019-04-01T19:33:41.011Z,2.00
2019-04-01T19:36:09.499Z,1.80
2019-04-01T19:38:38.092Z,1.80
2019-04-01T19:41:06.755Z,2.10
2019-04-01T19:43:35.230Z,2.10
2019-04-01T19:46:04.238Z,1.80
2019-04-01T19:48:32.727Z,2.00
2019-04-01T19:51:01.279Z,2.12
2019-04-01T19:53:29.922Z,2.10
2019-04-01T19:55:58.709Z,1.77
2019-04-01T19:58:27.521Z,1.55
2019-04-01T20:00:56.041Z,1.65
2019-04-01T20:03:25.533Z,1.70
2019-04-01T20:05:54.419Z,1.57
2019-04-01T20:08:23.159Z,1.55
2019-04-01T20:10:51.641Z,1.50
2019-04-01T20:13:20.178Z,1.62
2019-04-01T20:15:49.271Z,1.67
2019-04-01T20:18:17.704Z,1.70
2019-04-01T20:20:46.177Z,1.62
2019-04-01T20:23:14.860Z,1.60
2019-04-01T20:25:43.788Z,1.40
2019-04-01T20:28:13.112Z,1.70
2019-04-01T20:30:42.680Z,1.75
2019-04-01T20:33:17.532Z,1.65
2019-04-01T20:35:41.435Z,1.50
2019-04-01T20:38:09.935Z,1.80
2019-04-01T20:40:38.533Z,1.80
2019-04-01T20:43:07.011Z,1.62
2019-04-01T20:45:35.680Z,1.62
2019-04-01T20:48:04.436Z,1.80
2019-04-01T20:50:33.664Z,1.72
2019-04-01T20:53:02.188Z,1.57
2019-04-01T20:55:30.672Z,1.67
2019-04-01T20:57:59.188Z,1.77
2019-04-01T21:00:27.983Z,1.65
2019-04-01T21:02:56.458Z,1.52
2019-04-01T21:05:25.111Z,1.85
2019-04-01T21:07:53.630Z,1.90
2019-04-01T21:10:22.335Z,1.80
2019-04-01T21:12:50.825Z,1.60
2019-04-01T21:15:19.519Z,1.90
2019-04-01T21:17:48.162Z,2.17
2019-04-01T21:20:16.866Z,1.98
2019-04-01T21:22:45.763Z,1.75
2019-04-01T21:25:14.783Z,1.70
2019-04-01T21:27:44.519Z,1.60
2019-04-01T21:30:13.719Z,1.70
2019-04-01T21:32:42.196Z,1.95
2019-04-01T21:35:11.086Z,1.77
2019-04-01T21:37:39.598Z,2.00
2019-04-01T21:40:08.519Z,2.10
2019-04-01T21:42:37.251Z,1.60
2019-04-01T21:45:08.672Z,2.00
2019-04-01T21:47:37.131Z,1.80
2019-04-01T21:50:07.075Z,1.90
2019-04-01T21:52:37.152Z,1.98
2019-04-01T21:55:08.095Z,1.65
2019-04-01T21:57:36.550Z,1.80
2019-04-01T22:00:11.274Z,2.08
2019-04-01T22:02:39.739Z,1.85
2019-04-01T22:05:10.349Z,1.70
2019-04-01T22:07:39.353Z,1.70
2019-04-01T22:10:08.280Z,1.60
2019-04-01T22:12:36.778Z,1.77
2019-04-01T22:15:06.657Z,1.60
2019-04-01T22:17:35.155Z,1.62
2019-04-01T22:20:05.679Z,1.77
2019-04-01T22:22:34.251Z,1.60
2019-04-01T22:25:03.602Z,1.80
2019-04-01T22:27:32.122Z,1.50
2019-04-01T22:30:00.678Z,1.72
2019-04-01T22:32:29.185Z,1.60
2019-04-01T22:34:57.934Z,1.62
2019-04-01T22:37:27.716Z,1.82
2019-04-01T22:39:56.546Z,1.85
2019-04-01T22:42:25.060Z,1.80
2019-04-01T22:44:53.604Z,1.80
2019-04-01T22:47:24.420Z,1.77
2019-04-01T22:49:52.438Z,2.00
2019-04-01T22:52:21.048Z,2.00
2019-04-01T22:54:49.829Z,1.90
2019-04-01T22:57:18.311Z,2.10
2019-04-01T22:59:46.861Z,2.17
2019-04-01T23:02:15.353Z,1.90
2019-04-01T23:04:43.880Z,2.35
2019-04-01T23:07:12.421Z,2.30
2019-04-01T23:09:40.919Z,1.80
2019-04-01T23:12:09.438Z,1.80
2019-04-01T23:14:38.443Z,2.25
2019-04-01T23:17:06.943Z,2.10
2019-04-01T23:19:35.556Z,1.87
2019-04-01T23:22:05.307Z,2.10
2019-04-01T23:24:33.793Z,2.08
2019-04-01T23:27:02.376Z,1.87
2019-04-01T23:29:31.018Z,2.27
2019-04-01T23:31:59.532Z,2.00
2019-04-01T23:34:28.029Z,1.70
2019-04-01T23:36:56.585Z,2.02
2019-04-01T23:39:25.415Z,2.17
2019-04-01T23:41:53.919Z,2.05
2019-04-01T23:44:23.448Z,1.92
2019-04-01T23:46:52.315Z,2.30
2019-04-01T23:49:20.816Z,2.27
2019-04-01T23:51:49.501Z,2.12
2019-04-01T23:54:17.997Z,2.40
2019-04-01T23:56:46.570Z,1.85
2019-04-01T23:59:15.094Z,2.10
